Terminal Aerodrome Forecast
Issued by NWS

Home | Current Version | Previous Version | Text Only | Print | Product List | Glossary On
Versions: 1 2 3 4 5 6 7 8 9 10 11 12 13 14 15 16 17 18
173
FTUS46 KSTO 210537
TAFRBL
TAF
KRBL 210537Z 2106/2206 15011KT P6SM VCSH OVC040
      TEMPO 2108/2112 3SM -RA BR OVC015
     FM211300 15012KT 5SM -RA OVC015
      TEMPO 2113/2117 2SM -RA BR OVC007
     FM212200 15015G25KT P6SM VCSH BKN020 OVC050
     FM220300 15018G28KT 5SM -RA OVC015=

USA.gov is the U.S. government's official web portal to all federal, state and local government web resources and services.